Time;durP1;ratioP1;P1;durP2;ratioP2;P2;SDS_P1;SDS_P2;PMS_P1;PMS_P2;Temp;Humidity;BMP_temperature;BMP_pressure;BME280_temperature;BME280_humidity;BME280_pressure;Samples;Min_cycle;Max_cycle;Signal;HPM_P1;HPM_P2
2023/07/10 00:00:16;;;;;;;;;;;;;;;23.93;50.53;101914.00;5152843;27;19919;-59
2023/07/10 00:02:43;;;;;;;;;;;;;;;23.89;50.82;101916.50;5149185;27;19919;-59
2023/07/10 00:05:12;;;;;;;;;;;;;;;23.86;50.78;101928.03;5144243;27;19919;-59
2023/07/10 00:07:40;;;;;;;;;;;;;;;23.85;50.74;101929.16;5149725;27;20022;-58
2023/07/10 00:10:10;;;;;;;;;;;;;;;23.84;51.03;101929.44;5145524;27;19927;-59
2023/07/10 00:12:38;;;;;;;;;;;;;;;23.83;50.91;101923.13;5148930;27;19987;-59
2023/07/10 00:15:12;;;;;;;;;;;;;;;23.81;50.90;101930.81;5147379;27;19927;-59
2023/07/10 00:17:40;;;;;;;;;;;;;;;23.81;51.06;101936.31;5146051;27;19919;-59
2023/07/10 00:20:13;;;;;;;;;;;;;;;23.81;50.86;101944.56;5152165;27;19934;-59
2023/07/10 00:22:41;;;;;;;;;;;;;;;23.79;51.07;101941.28;5147805;27;19919;-59
2023/07/10 00:25:10;;;;;;;;;;;;;;;23.79;51.18;101934.97;5146862;27;19954;-59
2023/07/10 00:27:37;;;;;;;;;;;;;;;23.78;51.24;101931.41;5142181;27;19958;-58
2023/07/10 00:30:13;;;;;;;;;;;;;;;23.73;51.39;101925.94;5148553;27;19919;-58
2023/07/10 00:32:41;;;;;;;;;;;;;;;23.73;51.05;101920.44;5147575;27;19919;-58
2023/07/10 00:35:09;;;;;;;;;;;;;;;23.72;51.44;101921.53;5146526;27;19919;-58
2023/07/10 00:37:37;;;;;;;;;;;;;;;23.69;51.62;101914.69;5148704;27;19919;-58
2023/07/10 00:40:16;;;;;;;;;;;;;;;23.66;51.71;101920.75;5145449;27;19931;-59
2023/07/10 00:42:45;;;;;;;;;;;;;;;23.62;51.63;101921.59;5147584;27;19926;-58
2023/07/10 00:45:14;;;;;;;;;;;;;;;23.60;51.40;101918.31;5145147;27;20021;-58
2023/07/10 00:47:43;;;;;;;;;;;;;;;23.57;51.69;101927.94;5141547;27;19965;-59
2023/07/10 00:50:17;;;;;;;;;;;;;;;23.55;51.35;101932.91;5145016;27;20352;-59
2023/07/10 00:52:46;;;;;;;;;;;;;;;23.56;51.33;101928.22;5147130;27;19924;-58
2023/07/10 00:55:18;;;;;;;;;;;;;;;23.55;51.43;101916.44;5146105;27;19964;-59
2023/07/10 00:57:46;;;;;;;;;;;;;;;23.53;51.34;101924.09;5145019;27;19923;-60
2023/07/10 01:00:17;;;;;;;;;;;;;;;23.52;51.44;101924.38;5147911;27;19960;-60
2023/07/10 01:02:45;;;;;;;;;;;;;;;23.49;50.98;101919.44;5149956;27;19992;-59
2023/07/10 01:05:13;;;;;;;;;;;;;;;23.47;51.11;101919.72;5142935;27;20226;-58
2023/07/10 01:07:42;;;;;;;;;;;;;;;23.46;51.09;101922.75;5143507;27;20014;-59
2023/07/10 01:10:11;;;;;;;;;;;;;;;23.44;50.93;101922.22;5154363;27;19941;-59
2023/07/10 01:12:41;;;;;;;;;;;;;;;23.42;50.90;101925.25;5135493;27;19968;-58
2023/07/10 01:15:10;;;;;;;;;;;;;;;23.42;50.70;101919.75;5146605;27;19919;-59
2023/07/10 01:17:37;;;;;;;;;;;;;;;23.41;51.17;101933.75;5130941;27;19919;-59
2023/07/10 01:20:22;;;;;;;;;;;;;;;23.40;50.91;101927.44;5144533;27;19956;-59
2023/07/10 01:22:51;;;;;;;;;;;;;;;23.40;50.64;101934.88;5150412;27;19919;-59
2023/07/10 01:25:19;;;;;;;;;;;;;;;23.37;50.71;101926.09;5135768;27;20365;-59
2023/07/10 01:27:46;;;;;;;;;;;;;;;23.35;51.20;101922.81;5143976;27;19920;-59
2023/07/10 01:30:20;;;;;;;;;;;;;;;23.37;50.72;101922.53;5148176;27;19980;-59
2023/07/10 01:32:48;;;;;;;;;;;;;;;23.35;50.98;101913.75;5145149;27;19920;-59
2023/07/10 01:35:17;;;;;;;;;;;;;;;23.32;51.13;101909.66;5137869;27;19920;-59
2023/07/10 01:37:45;;;;;;;;;;;;;;;23.32;51.19;101917.88;5146168;27;19938;-59
2023/07/10 01:40:15;;;;;;;;;;;;;;;23.31;51.31;101920.91;5143037;27;19919;-60
2023/07/10 01:42:42;;;;;;;;;;;;;;;23.29;51.00;101920.38;5144751;27;19919;-59
2023/07/10 01:45:12;;;;;;;;;;;;;;;23.27;51.19;101925.31;5139244;27;20425;-58
2023/07/10 01:47:39;;;;;;;;;;;;;;;;;;5131793;27;19920;-58
2023/07/10 01:50:07;;;;;;;;;;;;;;;23.25;51.23;101916.53;5130688;27;19919;-59
2023/07/10 01:52:35;;;;;;;;;;;;;;;23.24;50.97;101929.44;5130405;27;20329;-59
2023/07/10 01:55:03;;;;;;;;;;;;;;;23.23;51.01;101929.72;5131847;27;19920;-59
2023/07/10 01:57:32;;;;;;;;;;;;;;;23.21;51.10;101935.50;5130767;27;20444;-58
2023/07/10 01:59:59;;;;;;;;;;;;;;;23.21;51.44;101934.66;5144146;27;19919;-59
2023/07/10 02:02:27;;;;;;;;;;;;;;;23.20;51.43;101939.34;5142617;27;19923;-59
2023/07/10 02:04:55;;;;;;;;;;;;;;;23.20;51.44;101933.03;5144390;27;19972;-59
2023/07/10 02:07:22;;;;;;;;;;;;;;;23.17;51.38;101926.19;5146722;27;19918;-58
2023/07/10 02:09:50;;;;;;;;;;;;;;;23.16;51.39;101923.72;5137118;27;19919;-58
2023/07/10 02:12:17;;;;;;;;;;;;;;;23.15;51.45;101933.88;5137157;27;19960;-58
2023/07/10 02:14:46;;;;;;;;;;;;;;;23.13;51.61;101930.56;5135168;27;20389;-59
2023/07/10 02:17:14;;;;;;;;;;;;;;;23.12;51.27;101933.59;5140396;27;19919;-58
2023/07/10 02:19:41;;;;;;;;;;;;;;;23.10;51.44;101939.38;5145510;27;19919;-58
2023/07/10 02:22:09;;;;;;;;;;;;;;;23.09;51.34;101945.94;5142042;27;19919;-59
2023/07/10 02:24:36;;;;;;;;;;;;;;;23.08;51.41;101938.81;5141536;27;19920;-58
2023/07/10 02:27:04;;;;;;;;;;;;;;;23.07;51.24;101944.59;5149595;27;19922;-58
2023/07/10 02:29:32;;;;;;;;;;;;;;;23.05;51.68;101947.59;5144578;27;19927;-58
2023/07/10 02:32:02;;;;;;;;;;;;;;;23.04;51.64;101962.41;5145354;27;19923;-58
2023/07/10 02:34:30;;;;;;;;;;;;;;;23.03;51.65;101963.50;5133037;28;19983;-58
2023/07/10 02:36:58;;;;;;;;;;;;;;;23.03;51.87;101961.59;5137199;27;19919;-58
2023/07/10 02:39:25;;;;;;;;;;;;;;;23.01;51.62;101961.06;5141814;27;20381;-59
2023/07/10 02:41:53;;;;;;;;;;;;;;;23.00;51.97;101955.84;5142878;27;19923;-58
2023/07/10 02:44:20;;;;;;;;;;;;;;;22.97;51.84;101951.75;5141983;27;19964;-59
2023/07/10 02:46:48;;;;;;;;;;;;;;;22.88;52.15;101936.97;5143422;27;19919;-58
2023/07/10 02:49:17;;;;;;;;;;;;;;;22.96;52.36;101952.84;5139728;27;19923;-58
2023/07/10 02:51:44;;;;;;;;;;;;;;;22.96;52.42;101952.84;5141151;27;19964;-58
2023/07/10 02:54:13;;;;;;;;;;;;;;;22.94;52.17;101946.00;5145988;27;19919;-59
2023/07/10 02:56:41;;;;;;;;;;;;;;;22.93;52.30;101967.09;5148944;27;19957;-59
2023/07/10 02:59:08;;;;;;;;;;;;;;;22.92;52.65;101956.41;5146518;27;19919;-59
2023/07/10 03:01:36;;;;;;;;;;;;;;;22.92;52.57;101972.88;5144233;27;19934;-59
2023/07/10 03:04:04;;;;;;;;;;;;;;;22.90;52.95;101958.63;5143897;27;20395;-59
2023/07/10 03:06:33;;;;;;;;;;;;;;;22.89;52.29;101967.94;5141504;27;19987;-59
2023/07/10 03:09:00;;;;;;;;;;;;;;;22.87;52.84;101970.13;5150482;27;19927;-59
2023/07/10 03:11:28;;;;;;;;;;;;;;;22.87;53.20;101976.44;5146985;27;19976;-59
2023/07/10 03:13:55;;;;;;;;;;;;;;;22.85;53.43;101973.16;5135268;27;20302;-59
2023/07/10 03:16:23;;;;;;;;;;;;;;;22.85;53.22;101977.81;5139458;27;19961;-59
2023/07/10 03:18:51;;;;;;;;;;;;;;;22.83;53.10;101978.09;5148045;27;19931;-59
2023/07/10 03:21:18;;;;;;;;;;;;;;;22.82;53.24;101975.63;5147486;27;19953;-58
2023/07/10 03:23:49;;;;;;;;;;;;;;;22.80;52.83;101986.03;5145519;27;19923;-59
2023/07/10 03:26:16;;;;;;;;;;;;;;;22.80;53.24;101977.81;5134685;27;19988;-60
2023/07/10 03:28:44;;;;;;;;;;;;;;;22.78;53.22;101980.81;5138180;27;19981;-59
2023/07/10 03:31:12;;;;;;;;;;;;;;;22.77;53.41;101987.38;5153195;27;19926;-59
2023/07/10 03:33:39;;;;;;;;;;;;;;;22.75;53.27;101989.56;5155066;27;20244;-58
2023/07/10 03:36:08;;;;;;;;;;;;;;;22.73;53.89;101989.03;5141881;27;19928;-59
2023/07/10 03:38:36;;;;;;;;;;;;;;;22.70;53.61;101995.88;5148974;27;19924;-59
2023/07/10 03:41:05;;;;;;;;;;;;;;;22.69;53.67;101996.16;5152440;27;20053;-59
2023/07/10 03:43:32;;;;;;;;;;;;;;;22.67;53.83;101993.69;5146838;27;19919;-59
2023/07/10 03:46:00;;;;;;;;;;;;;;;22.66;53.73;101989.31;5148258;27;19934;-59
2023/07/10 03:48:28;;;;;;;;;;;;;;;22.64;53.57;101994.25;5137334;27;20006;-59
2023/07/10 03:50:56;;;;;;;;;;;;;;;22.62;53.67;101998.34;5145194;27;20287;-59
2023/07/10 03:53:23;;;;;;;;;;;;;;;22.61;53.33;101991.22;5146307;27;20391;-59
2023/07/10 03:55:51;;;;;;;;;;;;;;;22.60;53.34;101995.88;5146319;27;19923;-59
2023/07/10 03:58:22;;;;;;;;;;;;;;;22.59;53.47;101991.50;5140846;27;19980;-59
2023/07/10 04:00:50;;;;;;;;;;;;;;;22.57;53.42;101990.97;5140442;27;19934;-59
2023/07/10 04:03:20;;;;;;;;;;;;;;;22.55;53.36;102012.34;5137803;27;19919;-59
2023/07/10 04:05:49;;;;;;;;;;;;;;;22.55;53.53;102011.50;5137781;27;19927;-59
2023/07/10 04:08:17;;;;;;;;;;;;;;;22.53;53.48;102005.50;5142822;27;19919;-59
2023/07/10 04:10:49;;;;;;;;;;;;;;;22.52;53.70;102012.91;5147564;27;19919;-59
2023/07/10 04:13:16;;;;;;;;;;;;;;;22.50;53.45;102017.84;5135625;27;19983;-59
2023/07/10 04:15:54;;;;;;;;;;;;;;;22.49;53.46;102020.84;5153447;27;19920;-58
2023/07/10 04:18:21;;;;;;;;;;;;;;;22.48;53.42;102017.28;5139620;27;19941;-59
2023/07/10 04:20:49;;;;;;;;;;;;;;;22.47;53.82;102023.88;5137776;27;19928;-59
2023/07/10 04:23:18;;;;;;;;;;;;;;;22.46;53.65;102024.13;5144295;27;19927;-59
2023/07/10 04:25:46;;;;;;;;;;;;;;;22.45;53.90;102017.00;5139966;27;19923;-59
2023/07/10 04:28:13;;;;;;;;;;;;;;;22.42;53.76;102014.81;5133619;27;20330;-59
2023/07/10 04:30:41;;;;;;;;;;;;;;;22.39;53.89;102013.44;5144604;27;19927;-60
2023/07/10 04:33:11;;;;;;;;;;;;;;;22.38;53.94;102007.16;5133685;27;19960;-59
2023/07/10 04:35:39;;;;;;;;;;;;;;;22.38;53.67;102020.03;5142803;27;20299;-58
2023/07/10 04:38:07;;;;;;;;;;;;;;;22.36;53.82;102014.81;5147349;27;19935;-60
2023/07/10 04:40:35;;;;;;;;;;;;;;;22.35;54.14;102017.81;5132903;27;19938;-60
2023/07/10 04:43:03;;;;;;;;;;;;;;;22.34;54.19;102017.00;5145953;27;19942;-61
2023/07/10 04:45:30;;;;;;;;;;;;;;;22.33;54.00;102015.34;5141028;27;20396;-60
2023/07/10 04:47:58;;;;;;;;;;;;;;;22.33;54.00;102009.06;5139838;27;19919;-61
2023/07/10 04:50:27;;;;;;;;;;;;;;;22.31;54.14;102016.72;5145377;27;19919;-60
2023/07/10 04:52:55;;;;;;;;;;;;;;;22.30;53.74;102018.63;5143563;27;19941;-59
2023/07/10 04:55:22;;;;;;;;;;;;;;;22.28;54.09;102018.09;5134030;27;19923;-59
2023/07/10 04:57:50;;;;;;;;;;;;;;;22.29;54.13;102022.47;5153544;27;19958;-59
2023/07/10 05:00:18;;;;;;;;;;;;;;;22.27;53.73;102032.88;5136470;27;19919;-59
2023/07/10 05:02:46;;;;;;;;;;;;;;;22.27;53.64;102027.41;5136564;27;19920;-59
2023/07/10 05:05:14;;;;;;;;;;;;;;;22.27;54.04;102032.88;5135485;27;19920;-59
2023/07/10 05:07:43;;;;;;;;;;;;;;;22.26;53.81;102039.44;5143048;27;19919;-59
2023/07/10 05:10:10;;;;;;;;;;;;;;;22.26;53.50;102038.63;5138874;27;20031;-58
2023/07/10 05:12:38;;;;;;;;;;;;;;;22.26;53.84;102041.38;5140514;27;20320;-60
2023/07/10 05:15:06;;;;;;;;;;;;;;;22.25;53.67;102047.94;5141681;27;19919;-59
2023/07/10 05:17:34;;;;;;;;;;;;;;;22.24;53.85;102047.13;5133949;27;19988;-58
2023/07/10 05:20:01;;;;;;;;;;;;;;;22.22;53.87;102041.09;5135247;27;20368;-57
2023/07/10 05:22:29;;;;;;;;;;;;;;;22.23;53.75;102050.94;5139518;27;19935;-59
2023/07/10 05:24:58;;;;;;;;;;;;;;;22.26;53.54;102050.41;4782017;27;10000008;-58
2023/07/10 05:27:25;;;;;;;;;;;;;;;22.28;53.95;102047.41;5140455;27;20026;-60
2023/07/10 05:29:53;;;;;;;;;;;;;;;22.29;53.77;102047.13;5134403;27;19927;-60
2023/07/10 05:32:20;;;;;;;;;;;;;;;22.30;53.44;102054.25;5135123;27;19968;-59
2023/07/10 05:34:48;;;;;;;;;;;;;;;22.30;53.23;102047.94;5135978;27;19951;-58
2023/07/10 05:37:15;;;;;;;;;;;;;;;22.31;53.47;102044.94;5142903;27;19931;-59
2023/07/10 05:39:43;;;;;;;;;;;;;;;22.31;53.68;102047.69;5137337;27;19919;-60
2023/07/10 05:42:13;;;;;;;;;;;;;;;22.34;53.92;102049.06;5143391;27;19935;-60
2023/07/10 05:44:41;;;;;;;;;;;;;;;22.34;53.97;102049.88;5142719;27;20283;-60
2023/07/10 05:47:08;;;;;;;;;;;;;;;22.35;53.67;102048.78;5142385;27;19942;-60
2023/07/10 05:49:36;;;;;;;;;;;;;;;22.37;53.72;102043.84;5139751;27;19920;-60
2023/07/10 05:52:04;;;;;;;;;;;;;;;22.39;53.74;102054.53;5135659;27;19923;-60
2023/07/10 05:54:31;;;;;;;;;;;;;;;22.41;54.21;102052.34;5138371;27;19919;-60
2023/07/10 05:56:59;;;;;;;;;;;;;;;22.42;54.02;102047.69;5142734;27;19940;-59
2023/07/10 05:59:28;;;;;;;;;;;;;;;22.43;54.01;102052.06;5149083;27;19923;-59
2023/07/10 06:01:57;;;;;;;;;;;;;;;22.36;53.88;102034.00;5140791;27;20067;-59
2023/07/10 06:04:24;;;;;;;;;;;;;;;22.45;53.79;102047.97;5141042;27;19926;-58
2023/07/10 06:06:55;;;;;;;;;;;;;;;22.48;53.75;102050.16;5141501;27;20010;-59
2023/07/10 06:09:22;;;;;;;;;;;;;;;22.48;54.09;102052.91;5157899;27;19919;-59
2023/07/10 06:11:50;;;;;;;;;;;;;;;22.49;53.95;102049.06;5132671;27;19934;-59
2023/07/10 06:14:18;;;;;;;;;;;;;;;22.51;54.25;102062.50;5145462;27;19923;-59
2023/07/10 06:16:47;;;;;;;;;;;;;;;22.51;54.15;102060.59;5144481;27;19919;-58
2023/07/10 06:19:15;;;;;;;;;;;;;;;22.52;54.20;102056.75;5141268;27;19926;-58
2023/07/10 06:21:43;;;;;;;;;;;;;;;22.54;53.85;102053.69;5132468;27;19941;-58
2023/07/10 06:24:11;;;;;;;;;;;;;;;22.56;53.79;102066.03;5139145;27;19919;-58
2023/07/10 06:26:38;;;;;;;;;;;;;;;22.57;53.79;102064.94;5145754;27;19923;-59
2023/07/10 06:29:06;;;;;;;;;;;;;;;22.59;54.04;102078.38;5137731;27;19965;-58
2023/07/10 06:31:34;;;;;;;;;;;;;;;22.61;53.57;102068.78;5148945;27;19919;-59
2023/07/10 06:34:03;;;;;;;;;;;;;;;22.65;53.89;102069.06;5145909;27;19948;-58
2023/07/10 06:36:30;;;;;;;;;;;;;;;22.67;53.69;102078.66;5144126;27;19923;-59
2023/07/10 06:38:58;;;;;;;;;;;;;;;22.70;53.36;102075.38;5153675;27;19923;-58
2023/07/10 06:41:27;;;;;;;;;;;;;;;22.72;53.69;102084.13;5136268;28;19920;-59
2023/07/10 06:43:55;;;;;;;;;;;;;;;22.74;53.19;102075.66;5140613;28;19919;-58
2023/07/10 06:46:23;;;;;;;;;;;;;;;22.77;53.37;102077.00;5138491;27;19919;-58
2023/07/10 06:48:50;;;;;;;;;;;;;;;22.77;53.02;102075.09;5144566;28;19919;-57
2023/07/10 06:51:19;;;;;;;;;;;;;;;22.79;52.87;102077.56;5140443;27;19919;-58
2023/07/10 06:53:47;;;;;;;;;;;;;;;22.80;52.46;102079.25;5141283;28;20372;-59
2023/07/10 06:56:14;;;;;;;;;;;;;;;22.72;52.76;102067.69;5134943;28;19920;-59
2023/07/10 06:58:42;;;;;;;;;;;;;;;22.82;52.52;102072.38;5152140;27;19919;-59
2023/07/10 07:01:10;;;;;;;;;;;;;;;22.85;52.28;102077.31;5145836;27;19962;-58
2023/07/10 07:03:40;;;;;;;;;;;;;;;22.90;52.60;102073.75;5145777;27;20051;-58
2023/07/10 07:06:08;;;;;;;;;;;;;;;22.88;52.15;102067.72;5146612;27;19926;-58
2023/07/10 07:08:37;;;;;;;;;;;;;;;22.89;52.30;102072.13;5142148;27;19935;-59
2023/07/10 07:11:05;;;;;;;;;;;;;;;22.89;52.44;102069.38;5141933;27;19924;-59
2023/07/10 07:13:33;;;;;;;;;;;;;;;22.91;51.99;102080.88;5140092;27;19927;-58
2023/07/10 07:16:00;;;;;;;;;;;;;;;22.92;52.39;102079.78;5143934;27;19919;-58
2023/07/10 07:18:28;;;;;;;;;;;;;;;22.92;52.07;102077.88;5147291;27;20360;-59
2023/07/10 07:20:56;;;;;;;;;;;;;;;22.92;51.81;102085.28;5138519;27;19946;-59
2023/07/10 07:23:24;;;;;;;;;;;;;;;22.90;51.61;102081.97;5137025;27;19923;-59
2023/07/10 07:25:53;;;;;;;;;;;;;;;22.88;51.27;102087.75;5145197;27;19924;-59
2023/07/10 07:28:20;;;;;;;;;;;;;;;22.85;51.62;102082.81;5140476;27;19919;-59
2023/07/10 07:30:48;;;;;;;;;;;;;;;22.83;51.32;102084.19;5142245;27;20429;-58
2023/07/10 07:33:16;;;;;;;;;;;;;;;22.82;51.26;102094.31;5137954;27;19930;-58
2023/07/10 07:35:44;;;;;;;;;;;;;;;22.80;51.57;102098.44;5142912;27;19919;-59
2023/07/10 07:38:13;;;;;;;;;;;;;;;22.79;51.22;102088.53;5139458;27;19919;-59
2023/07/10 07:40:40;;;;;;;;;;;;;;;22.77;51.18;102093.47;5145621;27;19948;-59
2023/07/10 07:43:09;;;;;;;;;;;;;;;22.74;51.11;102098.41;5143609;27;19919;-58
2023/07/10 07:45:37;;;;;;;;;;;;;;;22.73;51.06;102090.44;5149266;27;19919;-59
2023/07/10 07:48:05;;;;;;;;;;;;;;;22.71;51.46;102087.97;5145542;27;19919;-59
2023/07/10 07:50:33;;;;;;;;;;;;;;;22.70;51.07;102085.50;5145375;27;19945;-59
2023/07/10 07:53:00;;;;;;;;;;;;;;;22.69;51.30;102095.66;5138922;27;19924;-58
2023/07/10 07:55:28;;;;;;;;;;;;;;;22.67;51.54;102092.34;5139532;27;19927;-58
2023/07/10 07:57:55;;;;;;;;;;;;;;;22.68;51.62;102094.00;5154450;27;19923;-59
2023/07/10 08:00:24;;;;;;;;;;;;;;;22.68;51.60;102094.00;5147202;27;19919;-59
2023/07/10 08:02:54;;;;;;;;;;;;;;;22.68;51.49;102085.78;5147025;27;20025;-59
2023/07/10 08:05:23;;;;;;;;;;;;;;;22.68;51.60;102076.72;5143994;27;19939;-59
2023/07/10 08:08:01;;;;;;;;;;;;;;;22.67;51.74;102073.16;5143864;27;19930;-59
2023/07/10 08:10:32;;;;;;;;;;;;;;;22.68;51.84;102076.72;5130578;27;20433;-59
2023/07/10 08:13:00;;;;;;;;;;;;;;;22.67;51.37;102077.84;5144017;27;19944;-59
2023/07/10 08:15:29;;;;;;;;;;;;;;;22.67;51.69;102072.34;5134840;27;19923;-59
2023/07/10 08:17:56;;;;;;;;;;;;;;;22.67;51.35;102077.84;5146853;27;20373;-59
2023/07/10 08:20:24;;;;;;;;;;;;;;;22.66;51.78;102084.41;5146736;27;20025;-60
2023/07/10 08:22:52;;;;;;;;;;;;;;;22.66;51.20;102081.66;5136635;27;19920;-59
2023/07/10 08:25:19;;;;;;;;;;;;;;;22.65;51.32;102082.75;5135854;27;19920;-59
2023/07/10 08:27:47;;;;;;;;;;;;;;;22.66;51.05;102085.22;5142469;27;19931;-60
2023/07/10 08:30:17;;;;;;;;;;;;;;;22.69;51.50;102078.38;5142908;27;20193;-59
2023/07/10 08:32:45;;;;;;;;;;;;;;;22.70;51.13;102072.63;5135343;27;19919;-58
2023/07/10 08:35:13;;;;;;;;;;;;;;;22.70;50.89;102078.09;5142552;27;20037;-58
2023/07/10 08:37:41;;;;;;;;;;;;;;;22.69;50.81;102075.63;5136722;27;19923;-59
2023/07/10 08:40:13;;;;;;;;;;;;;;;22.69;50.74;102070.16;5148148;27;19940;-59
2023/07/10 08:42:41;;;;;;;;;;;;;;;22.69;51.04;102068.25;5142119;27;19950;-59
2023/07/10 08:45:13;;;;;;;;;;;;;;;22.69;50.84;102081.13;5138474;27;19920;-59
2023/07/10 08:47:45;;;;;;;;;;;;;;;22.68;50.61;102085.78;5146496;27;20023;-59
2023/07/10 08:50:17;;;;;;;;;;;;;;;22.68;50.75;102080.31;5147596;27;19963;-60
2023/07/10 08:52:50;;;;;;;;;;;;;;;22.70;50.35;102082.75;5144391;27;19960;-59
2023/07/10 08:55:27;;;;;;;;;;;;;;;22.70;50.60;102078.09;5139593;27;19919;-60
2023/07/10 08:57:56;;;;;;;;;;;;;;;22.71;50.77;102070.72;5144736;27;19919;-59
2023/07/10 09:00:26;;;;;;;;;;;;;;;22.76;50.48;102072.63;5147627;27;19919;-59
2023/07/10 09:03:01;;;;;;;;;;;;;;;22.75;50.49;102071.81;5145324;27;19926;-59
2023/07/10 09:05:31;;;;;;;;;;;;;;;22.76;50.88;102084.41;5139445;27;19919;-59
2023/07/10 09:08:01;;;;;;;;;;;;;;;22.77;50.46;102075.09;5143442;27;19941;-59
2023/07/10 09:10:35;;;;;;;;;;;;;;;22.80;50.26;102082.81;5146614;27;20363;-61
2023/07/10 09:13:04;;;;;;;;;;;;;;;22.81;50.21;102086.38;5143286;27;19919;-59
2023/07/10 09:15:33;;;;;;;;;;;;;;;22.82;50.31;102079.78;5151090;27;19927;-59
2023/07/10 09:18:06;;;;;;;;;;;;;;;22.82;50.37;102082.53;5143710;27;19987;-59
2023/07/10 09:20:37;;;;;;;;;;;;;;;22.89;50.17;102072.94;5147323;27;19920;-59
2023/07/10 09:23:10;;;;;;;;;;;;;;;22.89;50.27;102078.41;5148727;27;19923;-59
2023/07/10 09:25:37;;;;;;;;;;;;;;;22.90;50.06;102073.75;5144530;27;19965;-59
2023/07/10 09:28:05;;;;;;;;;;;;;;;22.89;50.15;102078.41;5145982;27;19926;-59
2023/07/10 09:30:51;;;;;;;;;;;;;;;22.89;49.92;102078.41;5144048;27;19919;-59
2023/07/10 09:33:20;;;;;;;;;;;;;;;22.90;49.71;102069.09;5147751;27;19918;-59
2023/07/10 09:35:49;;;;;;;;;;;;;;;22.91;49.57;102069.91;5129651;27;19927;-59
2023/07/10 09:38:19;;;;;;;;;;;;;;;22.91;49.45;102070.75;5134125;27;20427;-59
2023/07/10 09:40:47;;;;;;;;;;;;;;;22.93;49.53;102073.22;5136166;27;19930;-59
2023/07/10 09:43:16;;;;;;;;;;;;;;;22.93;49.16;102076.78;5137970;27;19930;-59
2023/07/10 09:45:44;;;;;;;;;;;;;;;22.97;49.36;102074.31;5139778;27;19926;-59
2023/07/10 09:48:15;;;;;;;;;;;;;;;22.97;49.10;102077.88;5132364;27;19919;-59
2023/07/10 09:50:49;;;;;;;;;;;;;;;22.98;49.09;102076.78;5144827;27;19919;-59
2023/07/10 09:53:30;;;;;;;;;;;;;;;22.99;48.68;102081.16;5144522;27;19927;-60
2023/07/10 09:55:58;;;;;;;;;;;;;;;23.00;48.92;102082.81;5141915;27;19983;-59
2023/07/10 09:58:26;;;;;;;;;;;;;;;23.01;48.82;102075.41;5135265;27;19926;-59
2023/07/10 10:00:54;;;;;;;;;;;;;;;23.03;48.90;102076.78;5146223;27;19992;-59
2023/07/10 10:03:25;;;;;;;;;;;;;;;23.07;48.96;102078.97;5140758;27;19923;-59
2023/07/10 10:05:53;;;;;;;;;;;;;;;23.08;48.74;102070.47;5133296;27;19962;-59
2023/07/10 10:08:22;;;;;;;;;;;;;;;23.09;48.18;102071.28;5138995;27;19923;-59
2023/07/10 10:11:02;;;;;;;;;;;;;;;23.09;48.40;102072.09;5139172;27;19924;-59
2023/07/10 10:13:30;;;;;;;;;;;;;;;23.13;48.30;102061.41;5131743;27;19920;-59
2023/07/10 10:16:03;;;;;;;;;;;;;;;23.16;48.60;102066.34;5145832;27;19966;-59
2023/07/10 10:18:36;;;;;;;;;;;;;;;23.17;48.18;102067.97;5145389;27;19976;-59
2023/07/10 10:21:06;;;;;;;;;;;;;;;23.20;47.92;102072.91;5146280;27;19919;-59
2023/07/10 10:23:34;;;;;;;;;;;;;;;23.20;48.21;102062.75;5144468;27;19930;-59
2023/07/10 10:26:12;;;;;;;;;;;;;;;23.16;48.14;102058.94;5141763;27;19927;-60
2023/07/10 10:28:44;;;;;;;;;;;;;;;23.24;47.47;102063.84;5137198;27;20011;-59
2023/07/10 10:31:12;;;;;;;;;;;;;;;;;;5142768;27;19949;-60
2023/07/10 10:33:42;;;;;;;;;;;;;;;23.28;47.37;102061.38;5135671;27;19966;-57
2023/07/10 10:36:27;;;;;;;;;;;;;;;23.31;47.69;102072.63;5145027;27;19919;-58
2023/07/10 10:38:58;;;;;;;;;;;;;;;23.34;47.59;102071.25;5141469;27;19919;-59
2023/07/10 10:41:38;;;;;;;;;;;;;;;23.35;47.52;102059.97;5143792;27;19942;-59
2023/07/10 10:44:09;;;;;;;;;;;;;;;23.37;47.32;102059.72;5143797;27;19987;-59
2023/07/10 10:46:53;;;;;;;;;;;;;;;23.41;47.24;102059.97;5145728;27;20436;-59
2023/07/10 10:49:26;;;;;;;;;;;;;;;23.44;47.35;102062.97;5143813;27;19919;-59
2023/07/10 10:51:58;;;;;;;;;;;;;;;23.47;47.66;102062.44;5143612;27;19919;-59
2023/07/10 10:54:28;;;;;;;;;;;;;;;23.50;47.46;102053.63;5142054;27;19919;-59
2023/07/10 10:57:09;;;;;;;;;;;;;;;23.56;47.99;102054.47;5138572;28;19927;-59
2023/07/10 10:59:44;;;;;;;;;;;;;;;23.61;47.80;102066.25;5129665;28;19919;-59
2023/07/10 11:02:20;;;;;;;;;;;;;;;23.66;47.57;102074.47;5145809;28;20433;-59
2023/07/10 11:04:50;;;;;;;;;;;;;;;23.72;47.62;102079.94;5143947;28;20002;-59
2023/07/10 11:07:20;;;;;;;;;;;;;;;23.76;47.90;102081.03;5135658;28;19927;-59
2023/07/10 11:09:49;;;;;;;;;;;;;;;23.80;47.85;102084.84;5133285;28;20044;-59
2023/07/10 11:12:19;;;;;;;;;;;;;;;23.82;47.28;102083.47;5146258;27;19926;-59
2023/07/10 11:14:46;;;;;;;;;;;;;;;23.83;46.84;102081.53;5146760;27;20360;-59
2023/07/10 11:17:14;;;;;;;;;;;;;;;23.85;46.52;102071.09;5137013;27;19943;-58
2023/07/10 11:19:42;;;;;;;;;;;;;;;23.85;46.52;102065.63;5138924;27;19920;-58
2023/07/10 11:22:10;;;;;;;;;;;;;;;23.87;46.12;102068.91;5131565;27;19950;-59
2023/07/10 11:24:38;;;;;;;;;;;;;;;23.87;46.06;102066.16;5143449;27;19949;-60
2023/07/10 11:27:13;;;;;;;;;;;;;;;23.87;46.35;102055.16;5151389;27;20313;-59
2023/07/10 11:29:43;;;;;;;;;;;;;;;23.87;46.53;102057.91;4791192;27;10000467;-59
2023/07/10 11:32:13;;;;;;;;;;;;;;;23.91;46.70;102051.56;5141003;27;19920;-59
2023/07/10 11:34:49;;;;;;;;;;;;;;;23.95;46.06;102057.31;5149376;27;19945;-59
2023/07/10 11:37:35;;;;;;;;;;;;;;;23.97;45.92;102052.38;5146955;27;20240;-59
2023/07/10 11:40:27;;;;;;;;;;;;;;;24.00;46.60;102055.38;5144365;27;19924;-59
2023/07/10 11:42:55;;;;;;;;;;;;;;;24.05;46.32;102039.97;5071210;28;20447;-58
2023/07/10 11:45:29;;;;;;;;;;;;;;;24.07;46.60;102052.31;5068175;28;19925;-58
2023/07/10 11:47:56;;;;;;;;;;;;;;;24.11;46.34;102049.81;5078504;28;19921;-60
2023/07/10 11:50:25;;;;;;;;;;;;;;;24.13;45.67;102042.94;5065858;28;19920;-58
2023/07/10 11:53:07;;;;;;;;;;;;;;;24.14;45.48;102043.78;5066289;28;19921;-59
2023/07/10 11:55:42;;;;;;;;;;;;;;;24.12;45.17;102044.06;5072337;28;19920;-59
2023/07/10 11:58:22;;;;;;;;;;;;;;;24.14;45.38;102046.50;5066631;28;19921;-59
2023/07/10 12:00:52;;;;;;;;;;;;;;;24.15;45.10;102038.00;5073204;28;19932;-59
2023/07/10 12:03:20;;;;;;;;;;;;;;;24.17;45.68;102037.72;5064882;28;20321;-59
2023/07/10 12:05:48;;;;;;;;;;;;;;;24.20;45.72;102035.22;5083650;28;19927;-59
2023/07/10 12:08:16;;;;;;;;;;;;;;;24.24;46.26;102041.78;5078779;28;19920;-59
2023/07/10 12:10:46;;;;;;;;;;;;;;;24.30;45.51;102042.56;5078268;28;19928;-59
2023/07/10 12:13:18;;;;;;;;;;;;;;;24.36;44.94;102037.84;5071341;28;19962;-59
2023/07/10 12:15:47;;;;;;;;;;;;;;;24.41;44.61;102038.66;5073625;28;20336;-59
2023/07/10 12:18:19;;;;;;;;;;;;;;;24.45;44.73;102038.91;5065100;28;19928;-59
2023/07/10 12:20:49;;;;;;;;;;;;;;;24.50;45.03;102036.94;5139861;27;19919;-59
2023/07/10 12:23:16;;;;;;;;;;;;;;;24.54;44.68;102029.75;5145827;27;19924;-60
2023/07/10 12:25:47;;;;;;;;;;;;;;;24.55;44.46;102033.31;5145993;27;19920;-59
2023/07/10 12:28:16;;;;;;;;;;;;;;;24.61;42.79;102029.41;5133669;27;19923;-60
2023/07/10 12:30:50;;;;;;;;;;;;;;;24.66;42.26;102013.69;5149486;27;19944;-58
2023/07/10 12:33:30;;;;;;;;;;;;;;;24.67;43.78;102004.34;5137901;27;20031;-59
2023/07/10 12:36:02;;;;;;;;;;;;;;;24.65;44.83;102016.75;5145858;27;19919;-60
2023/07/10 12:38:31;;;;;;;;;;;;;;;24.69;44.89;102012.31;5139136;27;19923;-59
2023/07/10 12:40:59;;;;;;;;;;;;;;;24.76;44.05;102009.22;5133923;27;19924;-59
2023/07/10 12:43:28;;;;;;;;;;;;;;;24.78;43.38;102007.00;5154627;27;19919;-59
2023/07/10 12:45:57;;;;;;;;;;;;;;;24.79;43.87;102012.22;5144337;27;19979;-57
2023/07/10 12:48:27;;;;;;;;;;;;;;;24.82;44.43;102005.31;5157362;27;19923;-58